Time;durP1;ratioP1;P1;durP2;ratioP2;P2;SDS_P1;SDS_P2;PMS_P1;PMS_P2;Temp;Humidity;BMP_temperature;BMP_pressure;BME280_temperature;BME280_humidity;BME280_pressure;Samples;Min_cycle;Max_cycle;Signal;HPM_P1;HPM_P2
2021/07/20 00:01:47;;;;;;;7.35;4.85;;;;;;;;;;4977934;28;20659;-86
2021/07/20 00:04:31;;;;;;;9.10;5.57;;;;;;;;;;4979033;28;20192;-84
2021/07/20 00:07:23;;;;;;;4.85;4.38;;;;;;;;;;4978805;28;20224;-86
2021/07/20 00:09:51;;;;;;;5.72;4.35;;;;;;;;;;4978448;28;20543;-85
2021/07/20 00:12:26;;;;;;;6.50;4.85;;;;;;;;;;4978740;28;20200;-84
2021/07/20 00:14:59;;;;;;;6.50;5.55;;;;;;;;;;4978321;28;20200;-84
2021/07/20 00:18:06;;;;;;;7.72;5.13;;;;;;;;;;4977875;28;20228;-85
2021/07/20 00:20:36;;;;;;;7.70;5.60;;;;;;;;;;4978157;28;20643;-84
2021/07/20 00:23:13;;;;;;;5.22;4.68;;;;;;;;;;4978538;28;20185;-84
2021/07/20 00:26:00;;;;;;;5.75;4.72;;;;;;;;;;4978192;28;20697;-85
2021/07/20 00:28:40;;;;;;;6.93;5.50;;;;;;;;;;4978304;28;20230;-83
2021/07/20 00:31:15;;;;;;;5.32;4.82;;;;;;;;;;4978103;28;20196;-85
2021/07/20 00:33:44;;;;;;;5.22;4.72;;;;;;;;;;4978011;28;20192;-87
2021/07/20 00:36:13;;;;;;;6.43;4.50;;;;;;;;;;4977622;28;20217;-84
2021/07/20 00:38:54;;;;;;;6.40;4.57;;;;;;;;;;4977724;28;20244;-84
2021/07/20 00:41:23;;;;;;;5.07;4.32;;;;;;;;;;4977987;28;20188;-85
2021/07/20 00:44:20;;;;;;;5.47;4.93;;;;;;;;;;4977986;28;20195;-86
2021/07/20 00:46:49;;;;;;;5.88;4.68;;;;;;;;;;4977365;28;20195;-84
2021/07/20 00:49:16;;;;;;;5.78;4.35;;;;;;;;;;4977549;28;20212;-84
2021/07/20 00:51:57;;;;;;;7.32;4.43;;;;;;;;;;4977799;28;20188;-83
2021/07/20 00:54:36;;;;;;;6.38;4.97;;;;;;;;;;4977945;28;20193;-83
2021/07/20 00:57:06;;;;;;;5.35;4.28;;;;;;;;;;4977803;28;20228;-85
2021/07/20 00:59:43;;;;;;;5.07;4.55;;;;;;;;;;4977581;28;20200;-86
2021/07/20 01:02:21;;;;;;;4.30;3.70;;;;;;;;;;4977557;28;20214;-84
2021/07/20 01:04:54;;;;;;;6.63;4.15;;;;;;;;;;4977870;28;20184;-84
2021/07/20 01:07:32;;;;;;;6.82;4.97;;;;;;;;;;4977529;28;20216;-85
2021/07/20 01:10:06;;;;;;;6.03;4.65;;;;;;;;;;4977799;28;20196;-85
2021/07/20 01:12:39;;;;;;;7.57;4.40;;;;;;;;;;4977801;28;20185;-84
2021/07/20 01:15:23;;;;;;;5.35;4.85;;;;;;;;;;4977182;28;20236;-83
2021/07/20 01:17:54;;;;;;;5.65;4.57;;;;;;;;;;4977281;28;20231;-84
2021/07/20 01:20:28;;;;;;;5.65;4.97;;;;;;;;;;4977256;28;20197;-83
2021/07/20 01:23:09;;;;;;;5.03;4.53;;;;;;;;;;4976984;28;20196;-86
2021/07/20 01:25:40;;;;;;;5.28;4.43;;;;;;;;;;4977620;28;20203;-84
2021/07/20 01:28:13;;;;;;;5.85;5.13;;;;;;;;;;4977107;28;20228;-87
2021/07/20 01:30:58;;;;;;;5.10;4.50;;;;;;;;;;4977531;28;20189;-84
2021/07/20 01:33:59;;;;;;;7.32;4.60;;;;;;;;;;4976661;28;20193;-85
2021/07/20 01:36:38;;;;;;;5.10;3.92;;;;;;;;;;4976625;28;20250;-83
2021/07/20 01:39:07;;;;;;;5.50;5.00;;;;;;;;;;4976541;28;20239;-85
2021/07/20 01:41:39;;;;;;;4.20;3.80;;;;;;;;;;4976857;28;20185;-85
2021/07/20 01:44:12;;;;;;;5.10;4.03;;;;;;;;;;4976386;28;20213;-85
2021/07/20 01:46:51;;;;;;;6.32;4.57;;;;;;;;;;4976222;28;20184;-84
2021/07/20 01:49:31;;;;;;;5.63;4.25;;;;;;;;;;4976633;28;20215;-85
2021/07/20 01:52:03;;;;;;;4.45;4.05;;;;;;;;;;4977271;28;20195;-86
2021/07/20 01:54:31;;;;;;;4.93;4.35;;;;;;;;;;4976841;28;20192;-86
2021/07/20 01:57:02;;;;;;;6.07;4.80;;;;;;;;;;4976478;28;20236;-85
2021/07/20 01:59:30;;;;;;;5.20;4.13;;;;;;;;;;4976570;28;20189;-86
2021/07/20 02:02:13;;;;;;;6.15;5.57;;;;;;;;;;4976622;28;20577;-84
2021/07/20 02:08:10;;;;;;;5.93;4.85;;;;;;;;;;4976001;28;20192;-87
2021/07/20 02:10:43;;;;;;;4.40;3.95;;;;;;;;;;4976005;28;20657;-84
2021/07/20 02:13:14;;;;;;;5.15;4.20;;;;;;;;;;4973029;28;20207;-83
2021/07/20 02:15:57;;;;;;;5.78;4.75;;;;;;;;;;4976544;28;20201;-85
2021/07/20 02:18:46;;;;;;;5.22;4.10;;;;;;;;;;4976514;28;20231;-84
2021/07/20 02:21:16;;;;;;;5.72;4.28;;;;;;;;;;4975897;28;20204;-85
2021/07/20 02:23:52;;;;;;;5.50;4.82;;;;;;;;;;4976913;28;20192;-86
2021/07/20 02:26:49;;;;;;;4.55;4.10;;;;;;;;;;4977282;28;20192;-85
2021/07/20 02:29:19;;;;;;;5.20;4.70;;;;;;;;;;4976467;28;20208;-83
2021/07/20 02:31:50;;;;;;;4.93;4.32;;;;;;;;;;4977181;28;20640;-84
2021/07/20 02:34:22;;;;;;;5.80;4.35;;;;;;;;;;4977248;28;20211;-85
2021/07/20 02:36:58;;;;;;;5.78;5.18;;;;;;;;;;4956824;28;20216;-86
2021/07/20 02:39:38;;;;;;;6.25;5.00;;;;;;;;;;4958730;28;20333;-86
2021/07/20 02:42:08;;;;;;;5.35;4.53;;;;;;;;;;4956928;29;20215;-86
2021/07/20 02:44:40;;;;;;;7.20;4.72;;;;;;;;;;4957682;29;20624;-84
2021/07/20 02:47:24;;;;;;;7.45;5.25;;;;;;;;;;4957009;28;20605;-84
2021/07/20 02:50:01;;;;;;;7.22;4.65;;;;;;;;;;4956620;29;20185;-85
2021/07/20 02:53:22;;;;;;;5.80;4.95;;;;;;;;;;4957147;29;20189;-85
2021/07/20 02:56:11;;;;;;;6.60;4.38;;;;;;;;;;4956931;29;20189;-87
2021/07/20 02:58:53;;;;;;;5.07;4.20;;;;;;;;;;4960369;28;20225;-86
2021/07/20 03:01:25;;;;;;;6.60;5.07;;;;;;;;;;4961166;29;20185;-84
2021/07/20 03:03:53;;;;;;;6.43;5.35;;;;;;;;;;4960962;29;20200;-84
2021/07/20 03:06:33;;;;;;;6.50;4.93;;;;;;;;;;4961009;29;20189;-85
2021/07/20 03:09:32;;;;;;;7.60;4.97;;;;;;;;;;4961090;29;20204;-85
2021/07/20 03:12:12;;;;;;;4.72;4.25;;;;;;;;;;4960800;29;20216;-85
2021/07/20 03:14:40;;;;;;;5.40;4.70;;;;;;;;;;4960826;29;20199;-86
2021/07/20 03:17:14;;;;;;;4.90;4.40;;;;;;;;;;4960254;28;20220;-85
2021/07/20 03:20:03;;;;;;;9.38;4.75;;;;;;;;;;4960704;29;20192;-86
2021/07/20 03:22:33;;;;;;;4.95;4.45;;;;;;;;;;4960303;29;20197;-85
2021/07/20 03:25:09;;;;;;;5.50;4.88;;;;;;;;;;4961069;29;20188;-85
2021/07/20 03:27:44;;;;;;;5.40;4.70;;;;;;;;;;4960973;28;20220;-86
2021/07/20 03:30:14;;;;;;;5.85;4.72;;;;;;;;;;4961019;29;20192;-85
2021/07/20 03:32:59;;;;;;;7.40;5.60;;;;;;;;;;4975728;28;20196;-86
2021/07/20 03:35:34;;;;;;;5.43;4.88;;;;;;;;;;4987676;28;20342;-87
2021/07/20 03:38:06;;;;;;;5.88;5.18;;;;;;;;;;4977418;28;20231;-85
2021/07/20 03:40:36;;;;;;;7.45;4.93;;;;;;;;;;4979821;28;20344;-86
2021/07/20 03:43:14;;;;;;;6.40;4.85;;;;;;;;;;4980293;28;20209;-85
2021/07/20 03:45:45;;;;;;;5.53;4.78;;;;;;;;;;4979996;28;20741;-86
2021/07/20 03:48:16;;;;;;;7.93;4.82;;;;;;;;;;4980263;28;20224;-86
2021/07/20 03:50:53;;;;;;;8.23;4.82;;;;;;;;;;4979409;28;20613;-85
2021/07/20 03:53:40;;;;;;;7.07;5.47;;;;;;;;;;4979702;28;20251;-84
2021/07/20 03:56:07;;;;;;;6.10;5.05;;;;;;;;;;4979022;28;20191;-86
2021/07/20 03:58:48;;;;;;;5.57;5.00;;;;;;;;;;4979286;28;20255;-85
2021/07/20 04:01:29;;;;;;;5.95;5.30;;;;;;;;;;4980431;28;20188;-85
2021/07/20 04:04:10;;;;;;;7.93;5.18;;;;;;;;;;4979860;28;21002;-86
2021/07/20 04:06:41;;;;;;;5.50;4.85;;;;;;;;;;4980746;28;20207;-86
2021/07/20 04:09:10;;;;;;;7.40;4.50;;;;;;;;;;4980123;28;20706;-86
2021/07/20 04:11:48;;;;;;;4.70;3.85;;;;;;;;;;4980438;28;20201;-87
2021/07/20 04:14:16;;;;;;;6.68;5.45;;;;;;;;;;4980185;28;20591;-86
2021/07/20 04:16:44;;;;;;;7.05;4.90;;;;;;;;;;4980812;28;20207;-86
2021/07/20 04:19:23;;;;;;;6.65;4.93;;;;;;;;;;4980173;28;20288;-87
2021/07/20 04:21:53;;;;;;;5.38;4.75;;;;;;;;;;4979728;28;20254;-85
2021/07/20 04:24:27;;;;;;;9.70;6.57;;;;;;;;;;4980005;28;20686;-85
2021/07/20 04:26:56;;;;;;;7.07;5.63;;;;;;;;;;4979930;28;20227;-85
2021/07/20 04:29:36;;;;;;;9.20;7.30;;;;;;;;;;4980815;28;20192;-86
2021/07/20 04:32:10;;;;;;;6.68;4.47;;;;;;;;;;4980842;28;20226;-85
2021/07/20 04:34:46;;;;;;;5.75;4.57;;;;;;;;;;4980964;28;20565;-85
2021/07/20 04:37:15;;;;;;;7.82;5.30;;;;;;;;;;4979834;28;20223;-86
2021/07/20 04:39:50;;;;;;;5.63;4.43;;;;;;;;;;4979971;28;20224;-87
2021/07/20 04:42:22;;;;;;;7.50;5.55;;;;;;;;;;4980276;28;20196;-85
2021/07/20 04:45:03;;;;;;;7.50;5.35;;;;;;;;;;4982176;28;20197;-85
2021/07/20 04:47:40;;;;;;;7.15;5.35;;;;;;;;;;4980176;28;20221;-86
2021/07/20 04:50:12;;;;;;;6.53;5.57;;;;;;;;;;4980133;28;20202;-85
2021/07/20 04:52:53;;;;;;;5.30;4.43;;;;;;;;;;4980284;28;20192;-86
2021/07/20 04:55:21;;;;;;;7.97;5.13;;;;;;;;;;4980844;28;20193;-86
2021/07/20 04:57:48;;;;;;;5.57;4.97;;;;;;;;;;4988270;28;20221;-85
2021/07/20 05:00:16;;;;;;;6.15;4.50;;;;;;;;;;4991197;28;20205;-85
2021/07/20 05:02:47;;;;;;;6.82;5.03;;;;;;;;;;4992692;28;20200;-85
2021/07/20 05:05:20;;;;;;;5.55;4.43;;;;;;;;;;4991814;28;20188;-85
2021/07/20 05:07:48;;;;;;;4.85;4.45;;;;;;;;;;4993449;28;20228;-85
2021/07/20 05:10:16;;;;;;;8.80;5.28;;;;;;;;;;4992414;28;20205;-84
2021/07/20 05:12:44;;;;;;;6.40;4.75;;;;;;;;;;4992287;28;20184;-85
2021/07/20 05:15:17;;;;;;;4.22;3.83;;;;;;;;;;4991936;28;20204;-84
2021/07/20 05:17:45;;;;;;;4.43;4.03;;;;;;;;;;4992592;28;20300;-85
2021/07/20 05:20:18;;;;;;;5.78;5.07;;;;;;;;;;4992012;28;20205;-85
2021/07/20 05:22:46;;;;;;;8.02;4.30;;;;;;;;;;4991890;28;20580;-85
2021/07/20 05:25:15;;;;;;;5.07;4.57;;;;;;;;;;4992587;28;20199;-84
2021/07/20 05:27:45;;;;;;;4.68;4.15;;;;;;;;;;4992204;28;20286;-85
2021/07/20 05:30:13;;;;;;;5.20;4.70;;;;;;;;;;4992623;28;20212;-85
2021/07/20 05:32:43;;;;;;;4.72;4.07;;;;;;;;;;4992806;28;20179;-85
2021/07/20 05:35:14;;;;;;;5.07;4.15;;;;;;;;;;4993550;28;20291;-86
2021/07/20 05:37:44;;;;;;;4.47;3.92;;;;;;;;;;4992077;28;20274;-86
2021/07/20 05:40:16;;;;;;;5.72;5.13;;;;;;;;;;4994143;28;20195;-85
2021/07/20 05:42:45;;;;;;;5.13;4.55;;;;;;;;;;4994104;28;20799;-85
2021/07/20 05:45:15;;;;;;;4.35;3.92;;;;;;;;;;4993344;28;20204;-85
2021/07/20 05:47:46;;;;;;;5.80;4.22;;;;;;;;;;4991419;28;20224;-84
2021/07/20 05:50:15;;;;;;;7.70;4.93;;;;;;;;;;4992538;28;20196;-85
2021/07/20 05:52:48;;;;;;;4.43;3.58;;;;;;;;;;4991404;28;20199;-85
2021/07/20 05:55:16;;;;;;;4.85;3.97;;;;;;;;;;4991008;28;20207;-85
2021/07/20 05:57:48;;;;;;;4.55;4.15;;;;;;;;;;4990331;28;20235;-83
2021/07/20 06:00:22;;;;;;;6.88;4.60;;;;;;;;;;4974407;28;20600;-84
2021/07/20 06:02:52;;;;;;;4.97;4.30;;;;;;;;;;4974835;28;20192;-83
2021/07/20 06:05:22;;;;;;;5.13;4.63;;;;;;;;;;4974498;28;20192;-84
2021/07/20 06:07:53;;;;;;;5.13;4.63;;;;;;;;;;4974284;28;20220;-84
2021/07/20 06:10:22;;;;;;;5.43;4.63;;;;;;;;;;4974561;28;20211;-84
2021/07/20 06:12:52;;;;;;;4.78;4.30;;;;;;;;;;4974405;28;20203;-84
2021/07/20 06:15:20;;;;;;;4.97;4.28;;;;;;;;;;4974283;28;20208;-84
2021/07/20 06:17:48;;;;;;;4.78;3.53;;;;;;;;;;4973892;28;20613;-84
2021/07/20 06:20:16;;;;;;;4.15;3.47;;;;;;;;;;4974358;28;20212;-84
2021/07/20 06:22:50;;;;;;;5.13;4.10;;;;;;;;;;4974195;28;20211;-84
2021/07/20 06:25:23;;;;;;;5.55;4.32;;;;;;;;;;4974034;28;20651;-84
2021/07/20 06:27:50;;;;;;;4.28;3.50;;;;;;;;;;4975218;28;20224;-84
2021/07/20 06:30:19;;;;;;;7.55;4.78;;;;;;;;;;4974158;28;20188;-84
2021/07/20 06:32:47;;;;;;;6.05;4.30;;;;;;;;;;4973761;28;20222;-84
2021/07/20 06:35:17;;;;;;;5.13;4.30;;;;;;;;;;4974078;28;20200;-84
2021/07/20 06:37:45;;;;;;;7.22;4.45;;;;;;;;;;4973754;28;20246;-84
2021/07/20 06:40:17;;;;;;;8.65;4.10;;;;;;;;;;4974008;28;20228;-84
2021/07/20 06:42:46;;;;;;;4.57;4.10;;;;;;;;;;4974253;28;20195;-85
2021/07/20 06:45:16;;;;;;;5.68;4.53;;;;;;;;;;4973875;28;20215;-84
2021/07/20 06:47:48;;;;;;;9.82;6.05;;;;;;;;;;4974425;28;20227;-85
2021/07/20 06:50:18;;;;;;;5.85;4.85;;;;;;;;;;4974584;28;20196;-85
2021/07/20 06:52:46;;;;;;;6.13;5.03;;;;;;;;;;4974528;28;20177;-86
2021/07/20 06:55:14;;;;;;;6.32;4.60;;;;;;;;;;4978755;28;20207;-85
2021/07/20 06:57:46;;;;;;;9.05;6.25;;;;;;;;;;4974299;28;20220;-84
2021/07/20 07:00:16;;;;;;;5.32;4.82;;;;;;;;;;4974050;28;20232;-85
2021/07/20 07:02:45;;;;;;;5.45;4.95;;;;;;;;;;4973286;28;20212;-85
2021/07/20 07:05:16;;;;;;;7.00;5.20;;;;;;;;;;4971991;28;20561;-84
2021/07/20 07:07:47;;;;;;;5.88;5.03;;;;;;;;;;4975509;28;20224;-84
2021/07/20 07:10:17;;;;;;;4.63;4.15;;;;;;;;;;4974012;28;20189;-84
2021/07/20 07:12:48;;;;;;;6.30;5.70;;;;;;;;;;4975016;28;20204;-84
2021/07/20 07:15:16;;;;;;;5.13;4.60;;;;;;;;;;4970796;28;20196;-85
2021/07/20 07:17:47;;;;;;;4.82;4.40;;;;;;;;;;4973733;28;20216;-86
2021/07/20 07:20:17;;;;;;;5.80;4.55;;;;;;;;;;4974192;28;20205;-85
2021/07/20 07:22:46;;;;;;;5.20;4.68;;;;;;;;;;4973924;28;20188;-84
2021/07/20 07:25:15;;;;;;;5.72;4.32;;;;;;;;;;4973909;28;20671;-84
2021/07/20 07:27:45;;;;;;;4.05;3.60;;;;;;;;;;4973857;28;20282;-85
2021/07/20 07:30:15;;;;;;;3.60;3.25;;;;;;;;;;4973816;28;20192;-84
2021/07/20 07:32:43;;;;;;;5.00;3.40;;;;;;;;;;4973662;28;20826;-84
2021/07/20 07:35:12;;;;;;;4.35;3.95;;;;;;;;;;4973215;28;20189;-85
2021/07/20 07:37:41;;;;;;;5.13;3.63;;;;;;;;;;4973619;28;20225;-85
2021/07/20 07:40:11;;;;;;;6.07;3.97;;;;;;;;;;4973611;28;20216;-85
2021/07/20 07:42:40;;;;;;;6.53;4.25;;;;;;;;;;4973289;28;20188;-84
2021/07/20 07:45:11;;;;;;;3.75;3.05;;;;;;;;;;4960819;28;20189;-85
2021/07/20 07:47:39;;;;;;;3.92;3.50;;;;;;;;;;4957869;28;20724;-85
2021/07/20 07:50:09;;;;;;;5.60;3.63;;;;;;;;;;4957330;29;20181;-85
2021/07/20 07:52:37;;;;;;;4.28;3.80;;;;;;;;;;4956798;28;20201;-84
2021/07/20 07:55:07;;;;;;;6.43;3.65;;;;;;;;;;4972414;28;20947;-85
2021/07/20 07:57:35;;;;;;;3.42;3.13;;;;;;;;;;4975892;28;20216;-84
2021/07/20 08:00:05;;;;;;;2.95;2.65;;;;;;;;;;4956895;29;20213;-84
2021/07/20 08:02:36;;;;;;;2.83;2.63;;;;;;;;;;4958200;29;20200;-85
2021/07/20 08:05:06;;;;;;;3.72;3.20;;;;;;;;;;4972341;28;20199;-85
2021/07/20 08:07:35;;;;;;;4.28;3.40;;;;;;;;;;4975015;28;20244;-85
2021/07/20 08:10:04;;;;;;;3.28;2.92;;;;;;;;;;4973005;28;20558;-86
2021/07/20 08:12:33;;;;;;;3.05;2.75;;;;;;;;;;4973111;28;20211;-85
2021/07/20 08:15:00;;;;;;;4.75;3.90;;;;;;;;;;4958248;28;20555;-85
2021/07/20 08:17:28;;;;;;;2.80;2.42;;;;;;;;;;4953620;28;20236;-85
2021/07/20 08:19:58;;;;;;;3.67;3.38;;;;;;;;;;4953338;29;20711;-85
2021/07/20 08:22:29;;;;;;;3.83;3.20;;;;;;;;;;4953414;29;20256;-85
2021/07/20 08:25:06;;;;;;;3.45;3.15;;;;;;;;;;4968125;28;20642;-85
2021/07/20 08:27:40;;;;;;;4.38;3.30;;;;;;;;;;4972799;28;20227;-85
2021/07/20 08:30:10;;;;;;;3.45;3.15;;;;;;;;;;4972958;28;20200;-85
2021/07/20 08:32:45;;;;;;;3.08;2.85;;;;;;;;;;4972297;28;20211;-85
2021/07/20 08:35:18;;;;;;;4.75;3.75;;;;;;;;;;4955859;28;20549;-85
2021/07/20 08:37:47;;;;;;;3.10;2.80;;;;;;;;;;4956501;28;20513;-85
2021/07/20 08:40:39;;;;;;;3.47;3.17;;;;;;;;;;4972455;28;20228;-85
2021/07/20 08:43:21;;;;;;;4.05;2.80;;;;;;;;;;4972387;28;20671;-85
2021/07/20 08:46:16;;;;;;;4.40;3.50;;;;;;;;;;4953224;29;20605;-86
2021/07/20 08:48:51;;;;;;;2.58;2.38;;;;;;;;;;4952872;28;20224;-85
2021/07/20 08:51:29;;;;;;;4.80;4.10;;;;;;;;;;4952868;29;20503;-85
2021/07/20 08:54:03;;;;;;;3.50;3.17;;;;;;;;;;4952912;28;20212;-85
2021/07/20 08:56:30;;;;;;;3.63;2.70;;;;;;;;;;4952446;29;20216;-86
2021/07/20 08:59:05;;;;;;;4.75;2.95;;;;;;;;;;4952919;29;20213;-85
2021/07/20 09:01:41;;;;;;;3.17;2.50;;;;;;;;;;4952613;29;20295;-85
2021/07/20 09:04:15;;;;;;;2.67;2.42;;;;;;;;;;4961006;28;20271;-85
2021/07/20 09:06:48;;;;;;;3.55;3.22;;;;;;;;;;4972137;28;20215;-86
2021/07/20 09:09:19;;;;;;;3.78;3.47;;;;;;;;;;4971980;28;20212;-85
2021/07/20 09:11:51;;;;;;;3.65;3.35;;;;;;;;;;4971948;28;20212;-86
2021/07/20 09:14:26;;;;;;;2.97;2.65;;;;;;;;;;4971620;28;20204;-85
2021/07/20 09:16:58;;;;;;;3.35;2.85;;;;;;;;;;4971726;28;20224;-86
2021/07/20 09:19:32;;;;;;;2.90;2.63;;;;;;;;;;4971645;28;20214;-86
2021/07/20 09:22:07;;;;;;;3.15;2.95;;;;;;;;;;4971681;28;20224;-86
2021/07/20 09:24:38;;;;;;;4.13;2.67;;;;;;;;;;4970091;28;20561;-86
2021/07/20 09:27:11;;;;;;;3.38;3.08;;;;;;;;;;4971804;28;20236;-86
2021/07/20 09:29:41;;;;;;;2.80;2.60;;;;;;;;;;4971617;28;20575;-85
2021/07/20 09:32:25;;;;;;;3.35;3.05;;;;;;;;;;4971692;28;20215;-85
2021/07/20 09:35:05;;;;;;;3.80;3.40;;;;;;;;;;4973426;28;20204;-86
2021/07/20 09:37:42;;;;;;;3.65;3.15;;;;;;;;;;4960725;28;20956;-86
2021/07/20 09:40:26;;;;;;;3.25;2.95;;;;;;;;;;4974224;28;20193;-86
2021/07/20 09:43:04;;;;;;;3.13;2.50;;;;;;;;;;4974088;28;20208;-86
2021/07/20 09:45:39;;;;;;;3.53;3.20;;;;;;;;;;4974213;28;20249;-86
2021/07/20 09:48:22;;;;;;;3.85;3.45;;;;;;;;;;4974270;28;20235;-85
2021/07/20 09:50:57;;;;;;;3.92;3.50;;;;;;;;;;4974508;28;20197;-86
2021/07/20 09:54:10;;;;;;;3.80;3.38;;;;;;;;;;4974215;28;20258;-86
2021/07/20 09:56:48;;;;;;;4.43;2.75;;;;;;;;;;4970282;28;20247;-85
2021/07/20 09:59:40;;;;;;;3.28;2.97;;;;;;;;;;4973982;28;20737;-85
2021/07/20 10:02:12;;;;;;;3.28;2.97;;;;;;;;;;4973887;28;20204;-86
2021/07/20 10:04:48;;;;;;;4.88;3.00;;;;;;;;;;4973510;28;20204;-86
2021/07/20 10:07:23;;;;;;;2.97;2.78;;;;;;;;;;4973478;28;20231;-86
2021/07/20 10:09:59;;;;;;;3.42;2.75;;;;;;;;;;4973802;28;20195;-86
2021/07/20 10:12:33;;;;;;;4.10;3.20;;;;;;;;;;4974019;28;20204;-87
2021/07/20 10:15:07;;;;;;;2.30;2.10;;;;;;;;;;4973156;28;20188;-86
2021/07/20 10:17:38;;;;;;;2.92;2.50;;;;;;;;;;4973783;28;20302;-86
2021/07/20 10:20:13;;;;;;;3.35;2.92;;;;;;;;;;4974184;28;20208;-85
2021/07/20 10:22:47;;;;;;;3.22;2.92;;;;;;;;;;4974480;28;20290;-86
2021/07/20 10:25:22;;;;;;;3.45;2.83;;;;;;;;;;4973211;28;20192;-88
2021/07/20 10:27:55;;;;;;;2.97;2.75;;;;;;;;;;4972613;28;20648;-86
2021/07/20 10:30:24;;;;;;;3.03;2.83;;;;;;;;;;4984481;28;20210;-87
2021/07/20 10:33:07;;;;;;;2.60;2.40;;;;;;;;;;4979539;28;20662;-86
2021/07/20 10:39:22;;;;;;;2.95;2.33;;;;;;;;;;4867912;28;20373;-88
2021/07/20 10:42:07;;;;;;;2.90;2.55;;;;;;;;;;4954465;28;20256;-88
2021/07/20 10:44:43;;;;;;;3.33;2.85;;;;;;;;;;4965710;28;20189;-88
2021/07/20 10:47:11;;;;;;;2.97;2.65;;;;;;;;;;4972839;28;20224;-86
2021/07/20 10:49:51;;;;;;;2.10;1.98;;;;;;;;;;4955105;28;20565;-86
2021/07/20 10:52:29;;;;;;;3.67;3.38;;;;;;;;;;4954042;29;20212;-86
2021/07/20 10:55:01;;;;;;;3.20;2.90;;;;;;;;;;4967184;28;20204;-87
2021/07/20 10:57:36;;;;;;;3.85;3.45;;;;;;;;;;4954077;28;20593;-86
2021/07/20 11:00:10;;;;;;;3.92;3.63;;;;;;;;;;4954639;28;20189;-86
2021/07/20 11:02:55;;;;;;;4.15;3.47;;;;;;;;;;4953911;29;20596;-86
2021/07/20 11:05:22;;;;;;;2.63;2.42;;;;;;;;;;4953996;29;20256;-86
2021/07/20 11:07:53;;;;;;;3.78;3.40;;;;;;;;;;4954049;28;20229;-86
2021/07/20 11:10:23;;;;;;;4.60;2.83;;;;;;;;;;4954069;29;20244;-86
2021/07/20 11:13:00;;;;;;;4.07;3.38;;;;;;;;;;4953589;29;20208;-85
2021/07/20 11:15:29;;;;;;;2.42;2.22;;;;;;;;;;4953940;29;20209;-87
2021/07/20 11:18:00;;;;;;;3.22;2.88;;;;;;;;;;4954224;28;20225;-86
2021/07/20 11:20:29;;;;;;;3.25;2.97;;;;;;;;;;4957877;28;20185;-85
2021/07/20 11:22:58;;;;;;;3.83;2.88;;;;;;;;;;4957290;28;20695;-85
2021/07/20 11:25:26;;;;;;;4.38;3.30;;;;;;;;;;4975781;28;20200;-85
2021/07/20 11:27:55;;;;;;;3.50;3.15;;;;;;;;;;4976623;28;20542;-85
2021/07/20 11:30:22;;;;;;;2.90;2.50;;;;;;;;;;4976678;28;20204;-85
2021/07/20 11:32:57;;;;;;;4.53;3.10;;;;;;;;;;4971746;28;20185;-85
2021/07/20 11:35:26;;;;;;;2.45;2.25;;;;;;;;;;4956881;28;20296;-86
2021/07/20 11:37:59;;;;;;;3.55;2.80;;;;;;;;;;4958217;28;20221;-86
2021/07/20 11:40:35;;;;;;;2.97;2.75;;;;;;;;;;4975660;28;20195;-86
2021/07/20 11:43:09;;;;;;;3.25;2.78;;;;;;;;;;4975721;28;20215;-87
2021/07/20 11:45:46;;;;;;;2.75;2.55;;;;;;;;;;4956633;29;20220;-85
2021/07/20 11:48:14;;;;;;;3.25;2.75;;;;;;;;;;4956388;28;20930;-86
2021/07/20 11:50:45;;;;;;;3.08;2.78;;;;;;;;;;4956892;29;20192;-86
2021/07/20 11:53:23;;;;;;;2.75;2.55;;;;;;;;;;4957408;28;20186;-87
2021/07/20 11:55:54;;;;;;;2.05;1.85;;;;;;;;;;4976279;28;20184;-86
2021/07/20 11:59:05;;;;;;;2.88;2.60;;;;;;;;;;4976574;28;20228;-86
2021/07/20 12:02:24;;;;;;;2.28;2.08;;;;;;;;;;4976409;28;20185;-86
2021/07/20 12:05:11;;;;;;;2.60;2.40;;;;;;;;;;4945544;28;20671;-86
2021/07/20 12:07:44;;;;;;;1.88;1.77;;;;;;;;;;4976323;28;20216;-86
2021/07/20 12:10:20;;;;;;;3.72;2.50;;;;;;;;;;4977141;28;20193;-86
2021/07/20 12:12:53;;;;;;;1.90;1.80;;;;;;;;;;4976517;28;20216;-85
2021/07/20 12:15:25;;;;;;;2.53;2.28;;;;;;;;;;4976004;28;20557;-87
2021/07/20 12:17:54;;;;;;;2.42;2.22;;;;;;;;;;4975424;28;20224;-86
2021/07/20 12:20:25;;;;;;;2.10;1.90;;;;;;;;;;4975809;28;20181;-87
2021/07/20 12:22:55;;;;;;;2.60;2.10;;;;;;;;;;4975056;28;20231;-86
2021/07/20 12:25:24;;;;;;;2.65;2.10;;;;;;;;;;4974610;28;20204;-85
2021/07/20 12:27:54;;;;;;;3.05;2.40;;;;;;;;;;4984530;28;20223;-85
2021/07/20 12:30:25;;;;;;;2.30;2.10;;;;;;;;;;4975231;28;20195;-86
2021/07/20 12:32:53;;;;;;;2.17;2.08;;;;;;;;;;4975704;28;20196;-87
2021/07/20 12:35:23;;;;;;;2.42;2.22;;;;;;;;;;4975533;28;20286;-87
2021/07/20 12:38:01;;;;;;;3.03;2.72;;;;;;;;;;4975352;28;20224;-87
2021/07/20 12:40:30;;;;;;;2.78;2.58;;;;;;;;;;4980548;28;20192;-87
2021/07/20 12:43:08;;;;;;;2.55;2.35;;;;;;;;;;4992637;28;20585;-87
2021/07/20 12:45:40;;;;;;;2.13;1.92;;;;;;;;;;4985267;28;20192;-85
2021/07/20 12:48:22;;;;;;;2.05;1.95;;;;;;;;;;4995048;28;20234;-86
2021/07/20 12:50:49;;;;;;;2.65;1.55;;;;;;;;;;4988815;28;20196;-86
2021/07/20 12:53:19;;;;;;;1.92;1.80;;;;;;;;;;4975086;28;20189;-85
2021/07/20 12:55:53;;;;;;;1.88;1.77;;;;;;;;;;4974985;28;20242;-85
2021/07/20 12:58:21;;;;;;;1.80;1.70;;;;;;;;;;4992766;28;20268;-85
2021/07/20 13:00:51;;;;;;;2.63;2.25;;;;;;;;;;4975420;28;20189;-87
2021/07/20 13:03:19;;;;;;;2.20;2.00;;;;;;;;;;4974596;28;20227;-86
2021/07/20 13:05:48;;;;;;;2.38;2.17;;;;;;;;;;4974994;28;20185;-86
2021/07/20 13:08:19;;;;;;;2.15;1.98;;;;;;;;;;4974826;28;20275;-86
2021/07/20 13:10:49;;;;;;;2.75;1.95;;;;;;;;;;4975003;28;20259;-86
2021/07/20 13:13:20;;;;;;;1.67;1.58;;;;;;;;;;4973792;28;20200;-86
2021/07/20 13:15:51;;;;;;;1.83;1.70;;;;;;;;;;4974777;28;20199;-86
2021/07/20 13:18:24;;;;;;;1.95;1.85;;;;;;;;;;4974674;28;20619;-87
2021/07/20 13:20:56;;;;;;;1.67;1.58;;;;;;;;;;4974325;28;20577;-87
2021/07/20 13:23:25;;;;;;;1.60;1.50;;;;;;;;;;4974586;28;20895;-86
2021/07/20 13:25:54;;;;;;;1.92;1.83;;;;;;;;;;4974705;28;20188;-87
2021/07/20 13:28:26;;;;;;;1.75;1.65;;;;;;;;;;4974405;28;20228;-85
2021/07/20 13:31:04;;;;;;;2.20;2.10;;;;;;;;;;4973604;28;20189;-87
2021/07/20 13:33:32;;;;;;;2.13;1.90;;;;;;;;;;4974125;28;20208;-85
2021/07/20 13:36:00;;;;;;;1.85;1.75;;;;;;;;;;4974270;28;20639;-86
2021/07/20 13:38:30;;;;;;;2.20;2.00;;;;;;;;;;4973893;28;20238;-85
2021/07/20 13:40:58;;;;;;;1.80;1.70;;;;;;;;;;4978327;28;20192;-85
2021/07/20 13:43:28;;;;;;;2.45;1.90;;;;;;;;;;4980437;28;20211;-87
2021/07/20 13:46:00;;;;;;;1.77;1.67;;;;;;;;;;4989376;28;20594;-86
2021/07/20 13:48:28;;;;;;;1.48;1.38;;;;;;;;;;4977005;28;20226;-87
2021/07/20 13:50:59;;;;;;;2.10;1.95;;;;;;;;;;4974067;28;20192;-85
2021/07/20 13:53:32;;;;;;;2.17;2.08;;;;;;;;;;4973626;28;20691;-87
2021/07/20 13:56:15;;;;;;;2.00;1.90;;;;;;;;;;4973672;28;20181;-87
2021/07/20 13:58:44;;;;;;;2.15;2.00;;;;;;;;;;4974448;28;20224;-86
2021/07/20 14:01:14;;;;;;;2.03;1.83;;;;;;;;;;4974489;28;20559;-86
2021/07/20 14:03:41;;;;;;;1.63;1.52;;;;;;;;;;4964029;28;20220;-87
2021/07/20 14:06:10;;;;;;;1.67;1.55;;;;;;;;;;4973664;28;20208;-86
2021/07/20 14:08:37;;;;;;;2.13;1.90;;;;;;;;;;4974312;28;20227;-87
2021/07/20 14:11:05;;;;;;;2.15;2.03;;;;;;;;;;4974500;28;20577;-86
2021/07/20 14:13:34;;;;;;;1.90;1.80;;;;;;;;;;4973949;28;20193;-86
2021/07/20 14:16:03;;;;;;;1.92;1.83;;;;;;;;;;4973645;28;20210;-85
2021/07/20 14:18:33;;;;;;;1.73;1.63;;;;;;;;;;4973893;28;20598;-86
2021/07/20 14:21:04;;;;;;;2.28;2.08;;;;;;;;;;4974874;28;20275;-86
2021/07/20 14:23:38;;;;;;;2.75;1.98;;;;;;;;;;4973693;28;20225;-86
2021/07/20 14:26:12;;;;;;;2.42;2.22;;;;;;;;;;4973654;28;20187;-86
2021/07/20 14:28:41;;;;;;;2.03;1.90;;;;;;;;;;4973547;28;20229;-87
2021/07/20 14:31:10;;;;;;;2.08;1.83;;;;;;;;;;4973923;28;20193;-86
2021/07/20 14:33:41;;;;;;;2.47;1.70;;;;;;;;;;4973666;28;20623;-86
2021/07/20 14:36:08;;;;;;;1.67;1.58;;;;;;;;;;4973487;28;20208;-86
2021/07/20 14:38:39;;;;;;;1.65;1.55;;;;;;;;;;4973446;28;20268;-86
2021/07/20 14:41:09;;;;;;;2.35;1.80;;;;;;;;;;4973274;28;20192;-85
2021/07/20 14:43:39;;;;;;;2.85;1.95;;;;;;;;;;4973216;28;20612;-85
2021/07/20 14:46:12;;;;;;;1.90;1.80;;;;;;;;;;4973567;28;20197;-86
2021/07/20 14:48:45;;;;;;;2.65;2.40;;;;;;;;;;4973363;28;20694;-86
2021/07/20 14:51:14;;;;;;;2.38;2.28;;;;;;;;;;4973386;28;20192;-86
2021/07/20 14:53:51;;;;;;;1.90;1.80;;;;;;;;;;4976498;28;20195;-85
2021/07/20 14:56:21;;;;;;;2.30;2.20;;;;;;;;;;4977680;28;20632;-85
2021/07/20 14:58:57;;;;;;;1.92;1.70;;;;;;;;;;4977568;28;20251;-85
2021/07/20 15:01:29;;;;;;;1.70;1.60;;;;;;;;;;4977517;28;20192;-85
2021/07/20 15:04:00;;;;;;;1.60;1.50;;;;;;;;;;4977672;28;20222;-86
2021/07/20 15:06:30;;;;;;;1.80;1.70;;;;;;;;;;4979594;28;20655;-84
2021/07/20 15:08:59;;;;;;;2.13;1.92;;;;;;;;;;4977437;28;20228;-84
2021/07/20 15:11:39;;;;;;;1.90;1.80;;;;;;;;;;4976795;28;20188;-86
2021/07/20 15:14:17;;;;;;;1.60;1.50;;;;;;;;;;4977183;28;20206;-85
2021/07/20 15:16:47;;;;;;;1.75;1.65;;;;;;;;;;4977363;28;20190;-86
2021/07/20 15:19:18;;;;;;;1.88;1.65;;;;;;;;;;4977627;28;20195;-85
2021/07/20 15:21:49;;;;;;;2.20;2.00;;;;;;;;;;4977593;28;20208;-85
2021/07/20 15:24:21;;;;;;;2.58;2.38;;;;;;;;;;4977044;28;20213;-85
2021/07/20 15:26:51;;;;;;;2.17;2.00;;;;;;;;;;4978955;28;20184;-86
2021/07/20 15:29:21;;;;;;;2.58;1.80;;;;;;;;;;4977235;28;20201;-86